Port Imperial New Jersey — WBR3133 — position and weather

sailwx.info

Track history (hours):
 
Tides and Currents Weather Stations Pressure Air Temp Water Temp Dewpoint Dewpoint Depression Visibility Wind Speed Wind Dir Waves Ship Positions

Port Imperial New Jersey

Owner: PORT IMPERIAL FERRY CORP, WEEHAWKEN, NJ. More information available from US FCC via Universal Licensing System and Coast Guard Vessel Documentation Center.

Last reported at 2015-Mar-06 00:33 UTC. Time now 2015-Mar-06 02:41 UTC.
Position N 40°42' W 074°00'.

Length 31 m.

Type: Passenger vessel. MMSI: 366990550.

Date/timePositionNaut miles runAvg speedWind from/ knotsBaromVisibWave heightAir tempDewpointWater temp
2015-Mar-06 00:33N 40°42' W 074°00'2 2.3
2015-Mar-05 23:33N 40°44' W 074°02'2 2.2
2015-Mar-05 22:33N 40°42' W 074°00'1 0.8
2015-Mar-05 21:34N 40°42' W 074°01'2 1.8
2015-Mar-05 20:33N 40°44' W 074°02'2 1.9
2015-Mar-05 19:34N 40°42' W 074°01'2 1.9
2015-Mar-05 18:33N 40°44' W 074°02'0 0.0
2015-Mar-05 17:33N 40°44' W 074°02'0 0.0
2015-Mar-05 16:33N 40°44' W 074°02'2 2.3
2015-Mar-05 15:33N 40°46' W 074°01'3 2.6
2015-Mar-05 14:33N 40°44' W 074°01'2 1.8
2015-Mar-05 13:33N 40°42' W 074°01'1 0.9
2015-Mar-05 12:33N 40°43' W 074°01'1 1.0
2015-Mar-05 11:33N 40°44' W 074°01'2 0.2
2015-Mar-05 00:33N 40°42' W 074°00'2 2.2
2015-Mar-04 23:34N 40°44' W 074°02'2 2.2
2015-Mar-04 22:33N 40°42' W 074°00'1 1.0
2015-Mar-04 21:33N 40°42' W 074°02'2 1.7
2015-Mar-04 20:33N 40°44' W 074°02'2 2.0
2015-Mar-04 19:33N 40°42' W 074°01'2 2.0
2015-Mar-04 18:33N 40°44' W 074°02'0 0.0
2015-Mar-04 17:33N 40°44' W 074°02'0 0.0
2015-Mar-04 16:33N 40°44' W 074°02'0 0.0
2015-Mar-04 15:33N 40°44' W 074°02'0 0.3
2015-Mar-04 14:33N 40°44' W 074°01'1 0.8
2015-Mar-04 13:33N 40°43' W 074°02'1 1.3
2015-Mar-04 12:33N 40°42' W 074°00'2 1.7
2015-Mar-04 11:34N 40°44' W 074°01'1 0.1
2015-Mar-04 00:34N 40°43' W 074°01'0 0.1
2015-Mar-03 23:33N 40°43' W 074°01'1 0.9
2015-Mar-03 22:33N 40°42' W 074°00'1 1.0
2015-Mar-03 21:34N 40°43' W 074°01'1 1.5
2015-Mar-03 20:34N 40°44' W 074°02'2 2.1
2015-Mar-03 19:33N 40°46' W 074°01'0 0.2
2015-Mar-03 18:34N 40°46' W 074°01'0 0.0
2015-Mar-03 17:33N 40°46' W 074°01'0 0.0
2015-Mar-03 16:33N 40°46' W 074°01'0 0.0
2015-Mar-03 15:33N 40°46' W 074°01'1 1.5
2015-Mar-03 14:33N 40°45' W 074°01'2 1.9
2015-Mar-03 13:33N 40°43' W 074°01'0 0.3
2015-Mar-03 12:33N 40°43' W 074°01'1 0.6
2015-Mar-03 11:33N 40°44' W 074°01'3 2.7
2015-Mar-03 10:33N 40°46' W 074°01'1 0.1
2015-Mar-03 01:33N 40°46' W 074°01'0 0.3
2015-Mar-03 00:33N 40°46' W 074°01'1 0.7
2015-Mar-02 23:33N 40°45' W 074°01'0 0.5
2015-Mar-02 22:33N 40°45' W 074°01'0 0.4
2015-Mar-02 21:33N 40°45' W 074°01'1 0.8
2015-Mar-02 20:34N 40°46' W 074°01'0 0.0
2015-Mar-02 15:19N 40°46' W 074°01'4 5.4
2015-Mar-02 14:33N 40°42' W 074°00'2 2.1
2015-Mar-02 13:33N 40°44' W 074°02'1 1.0
2015-Mar-02 12:33N 40°43' W 074°01'3 2.8
2015-Mar-02 11:33N 40°46' W 074°00'1 0.8
2015-Mar-02 10:33N 40°47' W 074°01'0 0.0
2015-Mar-02 09:34N 40°47' W 074°01'1 0.1
2015-Mar-02 01:34N 40°46' W 074°01'0 0.3
2015-Mar-02 00:33N 40°46' W 074°00'0 0.0
2015-Mar-01 23:34N 40°46' W 074°00'0 0.1
2015-Mar-01 22:33N 40°46' W 074°00'0 0.2
2015-Mar-01 21:33N 40°46' W 074°00'0 0.3
2015-Mar-01 20:34N 40°46' W 074°01'0 0.1
2015-Mar-01 19:33N 40°46' W 074°01'0 0.3
2015-Mar-01 18:34N 40°46' W 074°00'0 0.1
2015-Mar-01 17:33N 40°46' W 074°01'1 0.2
2015-Mar-01 14:34N 40°46' W 074°01'1 0.5
2015-Mar-01 13:33N 40°46' W 074°00'0 0.0
2015-Feb-28 19:33N 40°46' W 074°00'0 0.1
2015-Feb-28 18:33N 40°46' W 074°00'0 0.1
2015-Feb-28 17:33N 40°46' W 074°00'0 0.1
2015-Feb-28 16:34N 40°46' W 074°00'0 0.1
2015-Feb-28 15:33N 40°46' W 074°00'0 0.1
2015-Feb-28 14:33N 40°46' W 074°00'0 0.1
2015-Feb-28 13:33N 40°46' W 074°00'1 0.1
2015-Feb-28 01:12N 40°47' W 074°01'2 2.4
2015-Feb-28 00:33N 40°45' W 074°01'0 0.1
2015-Feb-27 23:33N 40°45' W 074°01'0 0.3
2015-Feb-27 22:33N 40°45' W 074°01'0 0.2
2015-Feb-27 21:33N 40°45' W 074°01'0 0.1
2015-Feb-27 20:33N 40°45' W 074°01'0 0.2
2015-Feb-27 19:33N 40°45' W 074°01'0 0.0
2015-Feb-27 18:33N 40°46' W 074°01'0 0.3
2015-Feb-27 17:33N 40°45' W 074°01'1 0.9
2015-Feb-27 16:33N 40°46' W 074°00'1 0.8
2015-Feb-27 15:33N 40°45' W 074°01'1 0.8
2015-Feb-27 14:33N 40°46' W 074°00'0 0.0
2015-Feb-27 13:33N 40°46' W 074°00'0 0.3
2015-Feb-27 12:33N 40°46' W 074°01'0 0.2
2015-Feb-27 11:33N 40°46' W 074°00'1 0.6
2015-Feb-27 10:33N 40°46' W 074°01'0 0.0
2015-Feb-27 01:09N 40°46' W 074°01'1 2.0
2015-Feb-27 00:32N 40°45' W 074°01'0 0.3
2015-Feb-26 23:33N 40°45' W 074°01'0 0.4
2015-Feb-26 22:33N 40°46' W 074°01'0 0.1
2015-Feb-26 21:33N 40°45' W 074°01'0 0.1
2015-Feb-26 20:33N 40°45' W 074°01'0 0.2
2015-Feb-26 19:33N 40°45' W 074°01'0 0.2
2015-Feb-26 18:33N 40°45' W 074°01'0 0.5
2015-Feb-26 17:32N 40°46' W 074°01'1 0.7
2015-Feb-26 16:32N 40°45' W 074°01'0 0.3
2015-Feb-26 15:33N 40°45' W 074°01'0 0.3
2015-Feb-26 14:32N 40°45' W 074°01'1 0.7
2015-Feb-26 13:33N 40°46' W 074°01'0 0.4
2015-Feb-26 12:25N 40°45' W 074°01'0 0.5
2015-Feb-26 11:29N 40°46' W 074°01'1 0.6
2015-Feb-26 10:17N 40°46' W 074°01'0 0.0
2015-Feb-26 09:16N 40°46' W 074°01'0 0.0
2015-Feb-26 08:24N 40°46' W 074°01'0 0.0
2015-Feb-26 07:31N 40°46' W 074°01'0 0.0
2015-Feb-26 06:32N 40°46' W 074°01'0 0.0
2015-Feb-26 05:33N 40°46' W 074°01'0 0.0
2015-Feb-26 01:12N 40°46' W 074°01'1 1.8
2015-Feb-26 00:33N 40°45' W 074°01'0 0.1
2015-Feb-25 23:32N 40°45' W 074°01'0 0.4
2015-Feb-25 22:33N 40°46' W 074°01'0 0.0
2015-Feb-25 21:31N 40°46' W 074°01'0 0.0
2015-Feb-25 20:32N 40°46' W 074°01'0 0.2
2015-Feb-25 19:33N 40°45' W 074°01'0 0.3
2015-Feb-25 18:33N 40°45' W 074°01'0 0.5
2015-Feb-25 17:33N 40°45' W 074°01'0 0.5
2015-Feb-25 16:33N 40°46' W 074°00'1 0.9
2015-Feb-25 15:33N 40°45' W 074°01'1 0.9
2015-Feb-25 14:30N 40°46' W 074°00'1 0.9
2015-Feb-25 13:29N 40°45' W 074°01'1 0.7
2015-Feb-25 12:29N 40°46' W 074°01'0 0.3
2015-Feb-25 11:33N 40°46' W 074°00'1 0.7
2015-Feb-25 10:30N 40°46' W 074°01'0 0.0
2015-Feb-25 01:15N 40°46' W 074°01'1 1.8
2015-Feb-25 00:34N 40°45' W 074°01'0 0.2
2015-Feb-24 23:33N 40°45' W 074°01'0 0.1
2015-Feb-24 22:33N 40°45' W 074°01'0 0.2
2015-Feb-24 21:34N 40°46' W 074°01'0 0.5
2015-Feb-24 20:34N 40°46' W 074°01'0 0.2
2015-Feb-24 19:34N 40°46' W 074°00'1 0.7
2015-Feb-24 18:33N 40°46' W 074°01'0 0.3
2015-Feb-24 17:34N 40°45' W 074°01'1 0.6
2015-Feb-24 16:34N 40°46' W 074°01'0 0.1
2015-Feb-24 15:34N 40°46' W 074°01'0 0.0
2015-Feb-24 14:33N 40°46' W 074°01'0 0.1
2015-Feb-24 13:34N 40°46' W 074°01'1 0.7
2015-Feb-24 12:33N 40°45' W 074°01'1 1.0
2015-Feb-24 11:33N 40°46' W 074°00'1 0.1
2015-Feb-24 03:33N 40°46' W 074°01'3 3.2
2015-Feb-24 02:33N 40°43' W 074°01'0 0.2
2015-Feb-24 01:33N 40°43' W 074°01'0 0.1
2015-Feb-24 00:33N 40°43' W 074°01'  
Track history (hours):
 
Tides and Currents Weather Stations Pressure Air Temp Water Temp Dewpoint Dewpoint Depression Visibility Wind Speed Wind Dir Waves Ship Positions

Port Imperial New Jersey

Owner: PORT IMPERIAL FERRY CORP, WEEHAWKEN, NJ. More information available from US FCC via Universal Licensing System and Coast Guard Vessel Documentation Center.

Last reported at 2015-Mar-06 00:33 UTC. Time now 2015-Mar-06 02:41 UTC.
Position N 40°42' W 074°00'.

Length 31 m.

Type: Passenger vessel. MMSI: 366990550.

Date/timePositionNaut miles runAvg speedWind from/ knotsBaromVisibWave heightAir tempDewpointWater temp
2015-Mar-06 00:33N 40°42' W 074°00'2 2.3
2015-Mar-05 23:33N 40°44' W 074°02'2 2.2
2015-Mar-05 22:33N 40°42' W 074°00'1 0.8
2015-Mar-05 21:34N 40°42' W 074°01'2 1.8
2015-Mar-05 20:33N 40°44' W 074°02'2 1.9
2015-Mar-05 19:34N 40°42' W 074°01'2 1.9
2015-Mar-05 18:33N 40°44' W 074°02'0 0.0
2015-Mar-05 17:33N 40°44' W 074°02'0 0.0
2015-Mar-05 16:33N 40°44' W 074°02'2 2.3
2015-Mar-05 15:33N 40°46' W 074°01'3 2.6
2015-Mar-05 14:33N 40°44' W 074°01'2 1.8
2015-Mar-05 13:33N 40°42' W 074°01'1 0.9
2015-Mar-05 12:33N 40°43' W 074°01'1 1.0
2015-Mar-05 11:33N 40°44' W 074°01'2 0.2
2015-Mar-05 00:33N 40°42' W 074°00'2 2.2
2015-Mar-04 23:34N 40°44' W 074°02'2 2.2
2015-Mar-04 22:33N 40°42' W 074°00'1 1.0
2015-Mar-04 21:33N 40°42' W 074°02'2 1.7
2015-Mar-04 20:33N 40°44' W 074°02'2 2.0
2015-Mar-04 19:33N 40°42' W 074°01'2 2.0
2015-Mar-04 18:33N 40°44' W 074°02'0 0.0
2015-Mar-04 17:33N 40°44' W 074°02'0 0.0
2015-Mar-04 16:33N 40°44' W 074°02'0 0.0
2015-Mar-04 15:33N 40°44' W 074°02'0 0.3
2015-Mar-04 14:33N 40°44' W 074°01'1 0.8
2015-Mar-04 13:33N 40°43' W 074°02'1 1.3
2015-Mar-04 12:33N 40°42' W 074°00'2 1.7
2015-Mar-04 11:34N 40°44' W 074°01'1 0.1
2015-Mar-04 00:34N 40°43' W 074°01'0 0.1
2015-Mar-03 23:33N 40°43' W 074°01'1 0.9
2015-Mar-03 22:33N 40°42' W 074°00'1 1.0
2015-Mar-03 21:34N 40°43' W 074°01'1 1.5
2015-Mar-03 20:34N 40°44' W 074°02'2 2.1
2015-Mar-03 19:33N 40°46' W 074°01'0 0.2
2015-Mar-03 18:34N 40°46' W 074°01'0 0.0
2015-Mar-03 17:33N 40°46' W 074°01'0 0.0
2015-Mar-03 16:33N 40°46' W 074°01'0 0.0
2015-Mar-03 15:33N 40°46' W 074°01'1 1.5
2015-Mar-03 14:33N 40°45' W 074°01'2 1.9
2015-Mar-03 13:33N 40°43' W 074°01'0 0.3
2015-Mar-03 12:33N 40°43' W 074°01'1 0.6
2015-Mar-03 11:33N 40°44' W 074°01'3 2.7
2015-Mar-03 10:33N 40°46' W 074°01'1 0.1
2015-Mar-03 01:33N 40°46' W 074°01'0 0.3
2015-Mar-03 00:33N 40°46' W 074°01'1 0.7
2015-Mar-02 23:33N 40°45' W 074°01'0 0.5
2015-Mar-02 22:33N 40°45' W 074°01'0 0.4
2015-Mar-02 21:33N 40°45' W 074°01'1 0.8
2015-Mar-02 20:34N 40°46' W 074°01'0 0.0
2015-Mar-02 15:19N 40°46' W 074°01'4 5.4
2015-Mar-02 14:33N 40°42' W 074°00'2 2.1
2015-Mar-02 13:33N 40°44' W 074°02'1 1.0
2015-Mar-02 12:33N 40°43' W 074°01'3 2.8
2015-Mar-02 11:33N 40°46' W 074°00'1 0.8
2015-Mar-02 10:33N 40°47' W 074°01'0 0.0
2015-Mar-02 09:34N 40°47' W 074°01'1 0.1
2015-Mar-02 01:34N 40°46' W 074°01'0 0.3
2015-Mar-02 00:33N 40°46' W 074°00'0 0.0
2015-Mar-01 23:34N 40°46' W 074°00'0 0.1
2015-Mar-01 22:33N 40°46' W 074°00'0 0.2
2015-Mar-01 21:33N 40°46' W 074°00'0 0.3
2015-Mar-01 20:34N 40°46' W 074°01'0 0.1
2015-Mar-01 19:33N 40°46' W 074°01'0 0.3
2015-Mar-01 18:34N 40°46' W 074°00'0 0.1
2015-Mar-01 17:33N 40°46' W 074°01'1 0.2
2015-Mar-01 14:34N 40°46' W 074°01'1 0.5
2015-Mar-01 13:33N 40°46' W 074°00'0 0.0
2015-Feb-28 19:33N 40°46' W 074°00'0 0.1
2015-Feb-28 18:33N 40°46' W 074°00'0 0.1
2015-Feb-28 17:33N 40°46' W 074°00'0 0.1
2015-Feb-28 16:34N 40°46' W 074°00'0 0.1
2015-Feb-28 15:33N 40°46' W 074°00'0 0.1
2015-Feb-28 14:33N 40°46' W 074°00'0 0.1
2015-Feb-28 13:33N 40°46' W 074°00'1 0.1
2015-Feb-28 01:12N 40°47' W 074°01'2 2.4
2015-Feb-28 00:33N 40°45' W 074°01'0 0.1
2015-Feb-27 23:33N 40°45' W 074°01'0 0.3
2015-Feb-27 22:33N 40°45' W 074°01'0 0.2
2015-Feb-27 21:33N 40°45' W 074°01'0 0.1
2015-Feb-27 20:33N 40°45' W 074°01'0 0.2
2015-Feb-27 19:33N 40°45' W 074°01'0 0.0
2015-Feb-27 18:33N 40°46' W 074°01'0 0.3
2015-Feb-27 17:33N 40°45' W 074°01'1 0.9
2015-Feb-27 16:33N 40°46' W 074°00'1 0.8
2015-Feb-27 15:33N 40°45' W 074°01'1 0.8
2015-Feb-27 14:33N 40°46' W 074°00'0 0.0
2015-Feb-27 13:33N 40°46' W 074°00'0 0.3
2015-Feb-27 12:33N 40°46' W 074°01'0 0.2
2015-Feb-27 11:33N 40°46' W 074°00'1 0.6
2015-Feb-27 10:33N 40°46' W 074°01'0 0.0
2015-Feb-27 01:09N 40°46' W 074°01'1 2.0
2015-Feb-27 00:32N 40°45' W 074°01'0 0.3
2015-Feb-26 23:33N 40°45' W 074°01'0 0.4
2015-Feb-26 22:33N 40°46' W 074°01'0 0.1
2015-Feb-26 21:33N 40°45' W 074°01'0 0.1
2015-Feb-26 20:33N 40°45' W 074°01'0 0.2
2015-Feb-26 19:33N 40°45' W 074°01'0 0.2
2015-Feb-26 18:33N 40°45' W 074°01'0 0.5
2015-Feb-26 17:32N 40°46' W 074°01'1 0.7
2015-Feb-26 16:32N 40°45' W 074°01'0 0.3
2015-Feb-26 15:33N 40°45' W 074°01'0 0.3
2015-Feb-26 14:32N 40°45' W 074°01'1 0.7
2015-Feb-26 13:33N 40°46' W 074°01'0 0.4
2015-Feb-26 12:25N 40°45' W 074°01'0 0.5
2015-Feb-26 11:29N 40°46' W 074°01'1 0.6
2015-Feb-26 10:17N 40°46' W 074°01'0 0.0
2015-Feb-26 09:16N 40°46' W 074°01'0 0.0
2015-Feb-26 08:24N 40°46' W 074°01'0 0.0
2015-Feb-26 07:31N 40°46' W 074°01'0 0.0
2015-Feb-26 06:32N 40°46' W 074°01'0 0.0
2015-Feb-26 05:33N 40°46' W 074°01'0 0.0
2015-Feb-26 01:12N 40°46' W 074°01'1 1.8
2015-Feb-26 00:33N 40°45' W 074°01'0 0.1
2015-Feb-25 23:32N 40°45' W 074°01'0 0.4
2015-Feb-25 22:33N 40°46' W 074°01'0 0.0
2015-Feb-25 21:31N 40°46' W 074°01'0 0.0
2015-Feb-25 20:32N 40°46' W 074°01'0 0.2
2015-Feb-25 19:33N 40°45' W 074°01'0 0.3
2015-Feb-25 18:33N 40°45' W 074°01'0 0.5
2015-Feb-25 17:33N 40°45' W 074°01'0 0.5
2015-Feb-25 16:33N 40°46' W 074°00'1 0.9
2015-Feb-25 15:33N 40°45' W 074°01'1 0.9
2015-Feb-25 14:30N 40°46' W 074°00'1 0.9
2015-Feb-25 13:29N 40°45' W 074°01'1 0.7
2015-Feb-25 12:29N 40°46' W 074°01'0 0.3
2015-Feb-25 11:33N 40°46' W 074°00'1 0.7
2015-Feb-25 10:30N 40°46' W 074°01'0 0.0
2015-Feb-25 01:15N 40°46' W 074°01'1 1.8
2015-Feb-25 00:34N 40°45' W 074°01'0 0.2
2015-Feb-24 23:33N 40°45' W 074°01'0 0.1
2015-Feb-24 22:33N 40°45' W 074°01'0 0.2
2015-Feb-24 21:34N 40°46' W 074°01'0 0.5
2015-Feb-24 20:34N 40°46' W 074°01'0 0.2
2015-Feb-24 19:34N 40°46' W 074°00'1 0.7
2015-Feb-24 18:33N 40°46' W 074°01'0 0.3
2015-Feb-24 17:34N 40°45' W 074°01'1 0.6
2015-Feb-24 16:34N 40°46' W 074°01'0 0.1
2015-Feb-24 15:34N 40°46' W 074°01'0 0.0
2015-Feb-24 14:33N 40°46' W 074°01'0 0.1
2015-Feb-24 13:34N 40°46' W 074°01'1 0.7
2015-Feb-24 12:33N 40°45' W 074°01'1 1.0
2015-Feb-24 11:33N 40°46' W 074°00'1 0.1
2015-Feb-24 03:33N 40°46' W 074°01'3 3.2
2015-Feb-24 02:33N 40°43' W 074°01'0 0.2
2015-Feb-24 01:33N 40°43' W 074°01'0 0.1
2015-Feb-24 00:33N 40°43' W 074°01'  

Dump ship's entire track history